Time;durP1;ratioP1;P1;durP2;ratioP2;P2;SDS_P1;SDS_P2;PMS_P1;PMS_P2;Temp;Humidity;BMP_temperature;BMP_pressure;BME280_temperature;BME280_humidity;BME280_pressure;Samples;Min_cycle;Max_cycle;Signal;HPM_P1;HPM_P2
2022/10/08 00:01:14;;;;;;;;;;;;;;;4.87;100.00;99912.69;4977343;28;19918;-88
2022/10/08 00:03:42;;;;;;;;;;;;;;;4.86;100.00;99925.84;4977950;28;19925;-88
2022/10/08 00:06:11;;;;;;;;;;;;;;;4.76;100.00;99919.91;4976428;28;19917;-94
2022/10/08 00:08:37;;;;;;;;;;;;;;;4.73;100.00;99917.31;4976791;28;19925;-94
2022/10/08 00:11:05;;;;;;;;;;;;;;;4.71;100.00;99921.75;4972673;28;20013;-81
2022/10/08 00:13:39;;;;;;;;;;;;;;;4.72;100.00;99920.84;4991704;28;19928;-85
2022/10/08 00:16:05;;;;;;;;;;;;;;;4.65;100.00;99916.59;4976092;28;19984;-87
2022/10/08 00:18:31;;;;;;;;;;;;;;;4.77;100.00;99921.66;4971511;28;20009;-85
2022/10/08 00:21:03;;;;;;;;;;;;;;;4.67;100.00;99920.06;4975467;28;20008;-84
2022/10/08 00:23:31;;;;;;;;;;;;;;;4.60;100.00;99921.91;4973827;28;20381;-85
2022/10/08 00:25:56;;;;;;;;;;;;;;;4.58;100.00;99926.34;4974494;28;19969;-88
2022/10/08 00:28:21;;;;;;;;;;;;;;;4.54;100.00;99930.75;4983478;28;20325;-86
2022/10/08 00:30:48;;;;;;;;;;;;;;;4.48;100.00;99927.34;4975070;28;19972;-86
2022/10/08 00:33:14;;;;;;;;;;;;;;;4.55;100.00;99921.97;4971053;28;19928;-84
2022/10/08 00:35:42;;;;;;;;;;;;;;;4.51;100.00;99924.69;4991378;28;20355;-92
2022/10/08 00:38:07;;;;;;;;;;;;;;;4.52;100.00;99926.41;4975137;28;19924;-86
2022/10/08 00:40:45;;;;;;;;;;;;;;;4.50;100.00;99929.06;4993045;28;19997;-94
2022/10/08 00:43:14;;;;;;;;;;;;;;;4.54;100.00;99932.50;4981809;28;19922;-82
2022/10/08 00:45:41;;;;;;;;;;;;;;;4.53;100.00;99936.91;4974019;28;19964;-88
2022/10/08 00:48:09;;;;;;;;;;;;;;;4.39;100.00;99931.00;4975134;28;19934;-87
2022/10/08 00:50:36;;;;;;;;;;;;;;;4.41;100.00;99929.22;4975433;28;19914;-91
2022/10/08 00:53:06;;;;;;;;;;;;;;;4.33;100.00;99931.09;4974751;28;19990;-91
2022/10/08 00:55:33;;;;;;;;;;;;;;;4.36;100.00;99938.91;4976169;28;19918;-86
2022/10/08 00:58:01;;;;;;;;;;;;;;;4.26;100.00;99940.81;4971535;28;19918;-89
2022/10/08 01:00:27;;;;;;;;;;;;;;;4.27;100.00;99937.28;4973100;28;19965;-87
2022/10/08 01:02:53;;;;;;;;;;;;;;;4.36;100.00;99924.03;4990160;28;19918;-86
2022/10/08 01:05:24;;;;;;;;;;;;;;;4.25;100.00;99912.84;4985830;28;19925;-86
2022/10/08 01:07:58;;;;;;;;;;;;;;;4.27;100.00;99910.19;4975108;28;19930;-87
2022/10/08 01:10:47;;;;;;;;;;;;;;;4.24;100.00;99910.22;4982807;28;19917;-84
2022/10/08 03:34:11;;;;;;;;;;;;;;;3.94;100.00;99949.09;5039952;23;20295;-86
2022/10/08 03:36:37;;;;;;;;;;;;;;;3.73;100.00;99951.09;4996799;28;19925;-85
2022/10/08 03:39:02;;;;;;;;;;;;;;;3.74;100.00;99957.22;5013770;28;19918;-84
2022/10/08 03:41:30;;;;;;;;;;;;;;;3.87;100.00;99952.72;4996230;28;20320;-83
2022/10/08 03:43:55;;;;;;;;;;;;;;;3.87;100.00;99966.66;4996156;28;19917;-87
2022/10/08 03:46:20;;;;;;;;;;;;;;;3.75;100.00;99970.31;4995962;28;20612;-85
2022/10/08 03:48:47;;;;;;;;;;;;;;;3.93;100.00;99963.13;5012411;28;19979;-83
2022/10/08 03:51:13;;;;;;;;;;;;;;;3.88;100.00;99970.16;5013447;28;19945;-83
2022/10/08 03:53:39;;;;;;;;;;;;;;;3.98;100.00;99972.63;5013513;28;19937;-83
2022/10/08 03:56:06;;;;;;;;;;;;;;;3.89;100.00;99972.75;4995443;28;19914;-84
2022/10/08 03:58:31;;;;;;;;;;;;;;;3.87;100.00;99973.69;4995651;28;20380;-84
2022/10/08 04:00:57;;;;;;;;;;;;;;;3.90;100.00;99969.25;5013440;28;19918;-84
2022/10/08 04:03:23;;;;;;;;;;;;;;;3.85;100.00;99967.59;4994351;28;20020;-85
2022/10/08 04:05:48;;;;;;;;;;;;;;;3.72;100.00;99975.59;4995999;28;20052;-85
2022/10/08 04:08:13;;;;;;;;;;;;;;;3.79;100.00;99977.25;4995485;28;19964;-84
2022/10/08 04:10:39;;;;;;;;;;;;;;;3.76;100.00;99979.91;4995697;28;20391;-83
2022/10/08 04:13:04;;;;;;;;;;;;;;;4.02;100.00;99977.84;4991073;28;20014;-88
2022/10/08 04:15:29;;;;;;;;;;;;;;;4.10;100.00;99982.13;4995575;28;19917;-85
2022/10/08 04:17:54;;;;;;;;;;;;;;;3.98;100.00;99977.88;5011618;28;20347;-86
2022/10/08 04:20:20;;;;;;;;;;;;;;;3.87;100.00;99987.66;4995334;28;19929;-84
2022/10/08 04:22:45;;;;;;;;;;;;;;;4.09;100.00;99985.63;5013110;28;19917;-86
2022/10/08 04:25:10;;;;;;;;;;;;;;;3.98;100.00;99977.03;5012977;28;19929;-85
2022/10/08 04:27:35;;;;;;;;;;;;;;;3.93;100.00;99981.47;5007827;28;19918;-85
2022/10/08 04:30:01;;;;;;;;;;;;;;;4.18;100.00;99984.66;5013007;28;20369;-87
2022/10/08 04:32:26;;;;;;;;;;;;;;;4.21;100.00;99986.34;5010667;28;19927;-85
2022/10/08 04:34:51;;;;;;;;;;;;;;;3.77;100.00;99989.50;5012688;28;19956;-85
2022/10/08 04:37:16;;;;;;;;;;;;;;;3.75;100.00;99986.06;4994998;28;19917;-85
2022/10/08 04:39:42;;;;;;;;;;;;;;;3.79;100.00;99987.72;5012757;28;20044;-87
2022/10/08 04:42:07;;;;;;;;;;;;;;;3.84;100.00;99984.19;4995008;28;19940;-85
2022/10/08 04:44:32;;;;;;;;;;;;;;;3.72;100.00;99982.56;4994933;28;19922;-87
2022/10/08 04:46:57;;;;;;;;;;;;;;;3.79;100.00;99982.50;4993626;28;19929;-86
2022/10/08 04:49:24;;;;;;;;;;;;;;;3.73;100.00;99985.19;5012450;28;20372;-87
2022/10/08 04:51:49;;;;;;;;;;;;;;;3.60;100.00;99989.69;5012574;28;20312;-86
2022/10/08 04:54:14;;;;;;;;;;;;;;;3.66;100.00;99982.66;5012280;28;19917;-85
2022/10/08 04:56:40;;;;;;;;;;;;;;;3.65;100.00;99984.41;5012689;28;19917;-88
2022/10/08 04:59:05;;;;;;;;;;;;;;;3.67;100.00;99982.66;5012417;28;20746;-88
2022/10/08 05:01:30;;;;;;;;;;;;;;;3.68;100.00;99984.38;5012304;28;20391;-86
2022/10/08 05:03:56;;;;;;;;;;;;;;;3.70;100.00;99993.09;5011159;28;19925;-86
2022/10/08 07:30:16;;;;;;;;;;;;;;;4.22;100.00;100134.97;5021482;23;19932;-86
2022/10/08 07:32:42;;;;;;;;;;;;;;;4.23;100.00;100134.97;4995850;28;20011;-88
2022/10/08 07:35:10;;;;;;;;;;;;;;;4.36;100.00;100133.06;4994748;28;19971;-93
2022/10/08 07:37:35;;;;;;;;;;;;;;;4.33;100.00;100136.56;4995820;28;19926;-87
2022/10/08 07:40:00;;;;;;;;;;;;;;;4.32;100.00;100140.09;5012230;28;19964;-85
2022/10/08 07:42:26;;;;;;;;;;;;;;;4.39;100.00;100146.16;5012949;28;19921;-85
2022/10/08 07:44:51;;;;;;;;;;;;;;;4.41;100.00;100151.38;5011788;28;19976;-92
2022/10/08 07:47:16;;;;;;;;;;;;;;;4.34;100.00;100146.19;5012940;28;19926;-89
2022/10/08 07:49:41;;;;;;;;;;;;;;;4.47;100.00;100148.69;5012140;28;20395;-91
2022/10/08 07:52:07;;;;;;;;;;;;;;;4.49;100.00;100141.66;5010692;28;19921;-84
2022/10/08 07:54:32;;;;;;;;;;;;;;;4.52;100.00;100152.97;4995428;28;19917;-84
2022/10/08 07:57:00;;;;;;;;;;;;;;;4.46;100.00;100153.03;5012454;28;20280;-84
2022/10/08 07:59:26;;;;;;;;;;;;;;;4.57;100.00;100155.53;4993175;28;19921;-83
2022/10/08 08:01:51;;;;;;;;;;;;;;;4.58;100.00;100162.53;5012209;28;20388;-85
2022/10/08 08:04:16;;;;;;;;;;;;;;;4.57;100.00;100167.81;5011273;28;20361;-85
2022/10/08 08:06:51;;;;;;;;;;;;;;;4.57;100.00;100160.78;5010977;28;20265;-86
2022/10/08 08:09:17;;;;;;;;;;;;;;;4.49;100.00;100163.50;4994804;28;19924;-85
2022/10/08 08:11:42;;;;;;;;;;;;;;;4.65;100.00;100158.94;5003620;28;20439;-85
2022/10/08 08:14:08;;;;;;;;;;;;;;;4.74;100.00;100157.97;5010979;28;19961;-85
2022/10/08 08:16:33;;;;;;;;;;;;;;;4.75;100.00;100162.31;4993550;28;20352;-87
2022/10/08 08:19:00;;;;;;;;;;;;;;;4.63;100.00;100162.50;4990102;28;20284;-84
2022/10/08 08:21:26;;;;;;;;;;;;;;;4.77;100.00;100163.19;5011619;28;19921;-84
2022/10/08 08:23:52;;;;;;;;;;;;;;;4.87;100.00;100172.66;4994252;28;20328;-85
2022/10/08 08:26:20;;;;;;;;;;;;;;;4.83;100.00;100168.31;4994076;28;19968;-85
2022/10/08 08:28:53;;;;;;;;;;;;;;;4.84;100.00;100170.06;4993074;28;19919;-91
2022/10/08 08:31:20;;;;;;;;;;;;;;;4.83;100.00;100167.47;5009494;28;20801;-87
2022/10/08 08:33:49;;;;;;;;;;;;;;;4.77;100.00;100167.53;5010753;28;19999;-90
2022/10/08 08:36:16;;;;;;;;;;;;;;;4.83;100.00;100168.31;5002733;28;20016;-88
2022/10/08 08:38:41;;;;;;;;;;;;;;;4.79;100.00;100166.66;5011671;28;19925;-90
2022/10/08 08:41:20;;;;;;;;;;;;;;;4.82;100.00;100166.59;5012088;28;19924;-92
2022/10/08 08:43:45;;;;;;;;;;;;;;;4.96;100.00;100168.16;5009645;28;19918;-85
2022/10/08 08:46:13;;;;;;;;;;;;;;;4.86;100.00;100173.53;5010569;28;20004;-85
2022/10/08 08:48:40;;;;;;;;;;;;;;;4.83;100.00;100173.56;5009081;28;20002;-84
2022/10/08 08:51:05;;;;;;;;;;;;;;;4.95;100.00;100171.69;5008163;28;19921;-92
2022/10/08 08:53:30;;;;;;;;;;;;;;;4.68;100.00;100176.41;4991828;28;20587;-87
2022/10/08 08:55:58;;;;;;;;;;;;;;;4.77;100.00;100181.56;5006788;28;20016;-85
2022/10/08 08:58:24;;;;;;;;;;;;;;;4.75;100.00;100182.44;5006678;28;19976;-85
2022/10/08 09:00:53;;;;;;;;;;;;;;;4.72;100.00;100183.34;5006811;28;19925;-86
2022/10/08 09:03:20;;;;;;;;;;;;;;;4.77;100.00;100178.03;4994874;28;20261;-93
2022/10/08 09:05:49;;;;;;;;;;;;;;;4.78;100.00;100178.03;4993584;28;19924;-85
2022/10/08 09:08:14;;;;;;;;;;;;;;;4.78;100.00;100174.53;4994354;28;19976;-84
2022/10/08 09:11:02;;;;;;;;;;;;;;;4.73;100.00;100180.72;5011170;28;19921;-84
2022/10/08 09:13:35;;;;;;;;;;;;;;;4.74;100.00;100184.22;4992694;28;19921;-87
2022/10/08 09:16:01;;;;;;;;;;;;;;;4.80;100.00;100186.75;4993739;28;20296;-84
2022/10/08 09:18:26;;;;;;;;;;;;;;;4.82;100.00;100200.75;5010790;28;19925;-85
2022/10/08 09:20:51;;;;;;;;;;;;;;;4.97;100.00;100201.44;5011065;28;19925;-87
2022/10/08 09:23:18;;;;;;;;;;;;;;;4.93;100.00;100197.09;5010784;28;19917;-85
2022/10/08 09:25:46;;;;;;;;;;;;;;;4.83;100.00;100204.22;5010320;28;20535;-88
2022/10/08 09:28:32;;;;;;;;;;;;;;;4.85;100.00;100203.34;5009479;28;20334;-86
2022/10/08 09:31:10;;;;;;;;;;;;;;;4.96;100.00;100204.94;4993242;28;19987;-85
2022/10/08 09:33:38;;;;;;;;;;;;;;;5.05;100.00;100210.06;5010545;28;19922;-89
2022/10/08 09:36:03;;;;;;;;;;;;;;;5.27;100.00;100226.41;5008286;28;20005;-93
2022/10/08 09:38:34;;;;;;;;;;;;;;;5.50;100.00;100239.19;4993663;28;19996;-85
2022/10/08 09:41:04;;;;;;;;;;;;;;;5.30;100.00;100229.00;5010011;28;19925;-91
2022/10/08 09:43:32;;;;;;;;;;;;;;;5.31;100.00;100232.47;4992879;28;20402;-87
2022/10/08 09:45:57;;;;;;;;;;;;;;;5.36;100.00;100231.53;5010672;28;19949;-85
2022/10/08 09:48:27;;;;;;;;;;;;;;;5.60;100.00;100235.56;4993878;28;19990;-88
2022/10/08 09:50:55;;;;;;;;;;;;;;;5.66;100.00;100242.47;4993973;28;20402;-85
2022/10/08 09:53:22;;;;;;;;;;;;;;;5.51;100.00;100251.47;5010013;28;19913;-85
2022/10/08 09:55:59;;;;;;;;;;;;;;;5.47;100.00;100249.75;4992310;28;20296;-84
2022/10/08 09:58:24;;;;;;;;;;;;;;;5.52;100.00;100249.69;5009457;28;19922;-86
2022/10/08 10:01:00;;;;;;;;;;;;;;;5.65;100.00;100251.28;4994095;28;19925;-86
2022/10/08 10:03:26;;;;;;;;;;;;;;;5.61;100.00;100253.06;5009891;28;19921;-85
2022/10/08 10:05:52;;;;;;;;;;;;;;;5.61;100.00;100253.06;5009427;28;19918;-84
2022/10/08 10:08:36;;;;;;;;;;;;;;;5.83;100.00;100258.84;5009613;28;19918;-85
2022/10/08 10:11:02;;;;;;;;;;;;;;;5.92;100.00;100256.97;5010191;28;20253;-84
2022/10/08 10:13:33;;;;;;;;;;;;;;;5.75;100.00;100260.72;5009250;28;19932;-85
2022/10/08 10:16:01;;;;;;;;;;;;;;;5.59;100.00;100265.34;4993813;28;19921;-84
2022/10/08 10:18:32;;;;;;;;;;;;;;;5.58;100.00;100263.59;5009343;28;19922;-86
2022/10/08 10:21:00;;;;;;;;;;;;;;;5.63;100.00;100261.81;5009760;28;19928;-85
2022/10/08 10:23:25;;;;;;;;;;;;;;;5.61;100.00;100262.72;5009972;28;19917;-85
2022/10/08 10:25:50;;;;;;;;;;;;;;;5.74;100.00;100258.13;5001639;28;19924;-84
2022/10/08 10:28:19;;;;;;;;;;;;;;;5.79;100.00;100262.44;5009220;28;19972;-84
2022/10/08 10:30:49;;;;;;;;;;;;;;;5.74;100.00;100258.13;5010865;28;19921;-85
2022/10/08 10:33:25;;;;;;;;;;;;;;;5.86;100.00;100255.31;5012982;28;20328;-85
2022/10/08 10:35:53;;;;;;;;;;;;;;;5.74;100.00;100256.34;5013055;28;19921;-84
2022/10/08 10:38:22;;;;;;;;;;;;;;;5.74;100.00;100258.13;5005561;28;19969;-86
2022/10/08 10:41:03;;;;;;;;;;;;;;;5.94;100.00;100258.69;5013672;28;19917;-92
2022/10/08 10:43:49;;;;;;;;;;;;;;;6.05;100.00;100261.19;5013056;28;19917;-86
2022/10/08 10:46:14;;;;;;;;;;;;;;;6.02;100.00;100260.38;4996544;28;19921;-86
2022/10/08 10:48:40;;;;;;;;;;;;;;;5.96;100.00;100275.34;5013030;28;20419;-88
2022/10/08 10:51:14;;;;;;;;;;;;;;;6.12;100.00;100269.84;4996665;28;20387;-91
2022/10/08 10:53:52;;;;;;;;;;;;;;;6.12;100.00;100269.84;4996278;28;20012;-91
2022/10/08 10:56:19;;;;;;;;;;;;;;;6.10;100.00;100266.38;5005906;28;20377;-93
2022/10/08 10:59:02;;;;;;;;;;;;;;;6.13;100.00;100267.19;5011262;28;20021;-84
2022/10/08 11:01:38;;;;;;;;;;;;;;;6.13;100.00;100263.69;5005515;28;19924;-90
2022/10/08 11:04:27;;;;;;;;;;;;;;;6.31;100.00;100271.25;5011381;28;19917;-85
2022/10/08 11:07:04;;;;;;;;;;;;;;;6.28;100.00;100270.44;5012222;28;19917;-85
2022/10/08 11:09:29;;;;;;;;;;;;;;;6.21;100.00;100268.78;5012331;28;19918;-84
2022/10/08 11:12:17;;;;;;;;;;;;;;;6.48;100.00;100267.47;5012910;28;19921;-84
2022/10/08 11:14:50;;;;;;;;;;;;;;;6.36;100.00;100264.13;5001131;28;19918;-85
2022/10/08 11:17:31;;;;;;;;;;;;;;;6.43;100.00;100262.28;4996151;28;19914;-85
2022/10/08 11:20:04;;;;;;;;;;;;;;;6.17;100.00;100275.88;5004302;28;20339;-85
2022/10/08 11:22:39;;;;;;;;;;;;;;;6.16;100.00;100267.13;5012497;28;19917;-86
2022/10/08 11:25:22;;;;;;;;;;;;;;;6.45;100.00;100267.50;5012695;28;20446;-85
2022/10/08 11:27:56;;;;;;;;;;;;;;;6.21;100.00;100264.41;5011486;28;19945;-85
2022/10/08 11:30:31;;;;;;;;;;;;;;;6.33;100.00;100263.31;5011815;28;20024;-85
2022/10/08 11:32:57;;;;;;;;;;;;;;;6.31;100.00;100265.97;5012611;28;19985;-87
2022/10/08 11:35:22;;;;;;;;;;;;;;;6.44;100.00;100266.63;4995983;28;19917;-86
2022/10/08 11:38:07;;;;;;;;;;;;;;;6.35;100.00;100266.78;5012678;28;19921;-86
2022/10/08 11:40:42;;;;;;;;;;;;;;;6.39;100.00;100267.63;5011822;28;19921;-90
2022/10/08 11:43:25;;;;;;;;;;;;;;;6.52;100.00;100271.75;4994197;28;19990;-91
2022/10/08 11:46:09;;;;;;;;;;;;;;;6.31;100.00;100263.34;5012557;28;19917;-86
2022/10/08 11:48:35;;;;;;;;;;;;;;;6.52;100.00;100269.97;5012613;28;19964;-85
2022/10/08 11:51:18;;;;;;;;;;;;;;;6.38;100.00;100261.47;4995551;28;19956;-90
2022/10/08 11:53:56;;;;;;;;;;;;;;;6.52;100.00;100261.22;5011918;28;19968;-84
2022/10/08 11:56:21;;;;;;;;;;;;;;;6.54;100.00;100262.06;4995421;28;19961;-87
2022/10/08 11:58:51;;;;;;;;;;;;;;;6.52;100.00;100258.59;4977758;28;19964;-87
2022/10/08 12:01:16;;;;;;;;;;;;;;;6.49;100.00;100254.28;5011754;28;19921;-90
2022/10/08 12:03:42;;;;;;;;;;;;;;;6.58;100.00;100247.09;5012451;28;19913;-91
2022/10/08 12:06:13;;;;;;;;;;;;;;;6.55;100.00;100248.88;5011529;28;19961;-91
2022/10/08 12:08:57;;;;;;;;;;;;;;;6.69;100.00;100245.13;5011029;28;20356;-90
2022/10/08 12:11:28;;;;;;;;;;;;;;;6.56;100.00;100247.13;5011634;28;19913;-85
2022/10/08 12:14:11;;;;;;;;;;;;;;;6.48;100.00;100252.53;5009946;28;20395;-90
2022/10/08 12:17:03;;;;;;;;;;;;;;;6.70;100.00;100253.00;5012071;28;19925;-90
2022/10/08 12:19:34;;;;;;;;;;;;;;;6.83;100.00;100250.09;5006016;28;19985;-92
2022/10/08 12:22:03;;;;;;;;;;;;;;;6.58;100.00;100242.69;5010544;28;19929;-87
2022/10/08 12:24:37;;;;;;;;;;;;;;;6.58;100.00;100250.59;4994883;28;19917;-88
2022/10/08 12:27:15;;;;;;;;;;;;;;;6.44;100.00;100239.44;5011561;28;19917;-89
2022/10/08 12:29:59;;;;;;;;;;;;;;;6.64;100.00;100242.56;5010290;28;19932;-88
2022/10/08 12:32:30;;;;;;;;;;;;;;;6.90;100.00;100238.53;5011169;28;20389;-85
2022/10/08 12:34:56;;;;;;;;;;;;;;;6.63;100.00;100239.97;5010023;28;19917;-85
2022/10/08 12:37:33;;;;;;;;;;;;;;;6.68;100.00;100243.38;5003271;28;19917;-86
2022/10/08 12:40:02;;;;;;;;;;;;;;;6.94;100.00;100244.59;5011244;28;20288;-85
2022/10/08 12:42:31;;;;;;;;;;;;;;;6.99;100.00;100243.63;5011059;28;20498;-84
2022/10/08 12:44:56;;;;;;;;;;;;;;;7.01;100.00;100235.69;5009570;28;19956;-84
2022/10/08 12:47:27;;;;;;;;;;;;;;;7.28;100.00;100231.59;5011145;28;19964;-86
2022/10/08 12:49:57;;;;;;;;;;;;;;;6.99;100.00;100226.94;4989992;28;19921;-84
2022/10/08 12:52:23;;;;;;;;;;;;;;;6.86;100.00;100231.59;5009154;28;20430;-86
2022/10/08 12:54:50;;;;;;;;;;;;;;;6.97;100.00;100224.31;5009997;28;19921;-84
2022/10/08 12:57:21;;;;;;;;;;;;;;;6.81;100.00;100220.28;5011216;28;19918;-85
2022/10/08 12:59:46;;;;;;;;;;;;;;;6.88;100.00;100224.53;5008679;28;19922;-85
2022/10/08 13:02:30;;;;;;;;;;;;;;;6.72;100.00;100224.84;5009414;28;19932;-88
2022/10/08 13:04:55;;;;;;;;;;;;;;;6.91;100.00;100214.81;5010490;28;20299;-86
2022/10/08 13:07:25;;;;;;;;;;;;;;;7.02;100.00;100222.47;5010647;28;19921;-85
2022/10/08 13:10:15;;;;;;;;;;;;;;;6.77;100.00;100216.00;4993401;28;20007;-84
2022/10/08 13:12:42;;;;;;;;;;;;;;;6.75;100.00;100218.66;5002181;28;19976;-83
2022/10/08 13:15:20;;;;;;;;;;;;;;;6.89;100.00;100210.44;5007688;28;19972;-84
2022/10/08 13:17:45;;;;;;;;;;;;;;;7.03;100.00;100210.16;5009546;28;19925;-88
2022/10/08 13:20:13;;;;;;;;;;;;;;;6.89;100.00;100210.44;4992079;28;19950;-86
2022/10/08 13:22:39;;;;;;;;;;;;;;;6.84;100.00;100207.06;5010889;28;19917;-87
2022/10/08 13:25:04;;;;;;;;;;;;;;;6.77;100.00;100213.38;5011023;28;19929;-87
2022/10/08 13:27:31;;;;;;;;;;;;;;;7.12;100.00;100214.38;5009336;28;19965;-85
2022/10/08 13:30:16;;;;;;;;;;;;;;;6.93;100.00;100204.22;5007775;28;19925;-86
2022/10/08 13:32:41;;;;;;;;;;;;;;;7.02;100.00;100206.69;5009102;28;19933;-88
2022/10/08 13:35:18;;;;;;;;;;;;;;;7.03;100.00;100208.38;4992351;28;19917;-87
2022/10/08 13:37:49;;;;;;;;;;;;;;;6.97;100.00;100216.41;5010177;28;19928;-86
2022/10/08 13:40:19;;;;;;;;;;;;;;;6.96;100.00;100221.75;5008836;28;20296;-89
2022/10/08 13:42:45;;;;;;;;;;;;;;;7.00;100.00;100221.63;4992543;28;19930;-85
2022/10/08 13:45:15;;;;;;;;;;;;;;;7.04;100.00;100217.19;5007379;28;19928;-84
2022/10/08 13:47:41;;;;;;;;;;;;;;;6.90;100.00;100217.47;5007188;28;19922;-91
2022/10/08 13:50:06;;;;;;;;;;;;;;;6.98;100.00;100215.53;4992958;28;19929;-85
2022/10/08 13:52:33;;;;;;;;;;;;;;;6.95;100.00;100223.50;5010681;28;19922;-86
2022/10/08 13:55:03;;;;;;;;;;;;;;;7.05;100.00;100222.44;5009944;28;19945;-86
2022/10/08 13:57:28;;;;;;;;;;;;;;;7.17;100.00;100226.53;5009780;28;20270;-86
2022/10/08 13:59:53;;;;;;;;;;;;;;;7.22;100.00;100219.41;5008619;28;19925;-85
2022/10/08 14:02:19;;;;;;;;;;;;;;;7.25;100.00;100224.59;4992312;28;19918;-89
2022/10/08 14:04:44;;;;;;;;;;;;;;;7.04;100.00;100218.03;5011403;28;19957;-87
2022/10/08 14:07:17;;;;;;;;;;;;;;;7.19;100.00;100224.72;5014640;28;20428;-89
2022/10/08 14:09:43;;;;;;;;;;;;;;;7.35;100.00;100220.00;5005033;28;19964;-90
2022/10/08 14:12:08;;;;;;;;;;;;;;;7.14;100.00;100220.47;4994900;28;19965;-88
2022/10/08 14:14:34;;;;;;;;;;;;;;;7.31;100.00;100223.63;4994547;28;20016;-85
2022/10/08 14:16:59;;;;;;;;;;;;;;;7.25;100.00;100229.03;5014080;28;19917;-87
2022/10/08 14:19:24;;;;;;;;;;;;;;;7.25;100.00;100226.38;5014150;28;20011;-84
2022/10/08 14:21:51;;;;;;;;;;;;;;;7.19;100.00;100229.16;5013868;28;19917;-86
2022/10/08 14:24:16;;;;;;;;;;;;;;;7.16;100.00;100223.94;5012214;28;19921;-84
2022/10/08 14:26:42;;;;;;;;;;;;;;;7.26;100.00;100225.50;5011921;28;19983;-85
2022/10/08 14:29:10;;;;;;;;;;;;;;;7.11;100.00;100223.19;5010985;28;19922;-85
2022/10/08 14:31:35;;;;;;;;;;;;;;;7.28;100.00;100223.69;5012130;28;19925;-87
2022/10/08 14:34:01;;;;;;;;;;;;;;;7.23;100.00;100230.81;5014060;28;19925;-87
2022/10/08 14:36:31;;;;;;;;;;;;;;;7.25;100.00;100223.75;4995114;28;19917;-86
2022/10/08 14:38:56;;;;;;;;;;;;;;;7.39;100.00;100221.66;5012424;28;20032;-87
2022/10/08 14:41:22;;;;;;;;;;;;;;;7.26;100.00;100225.50;4994778;28;20363;-88
2022/10/08 14:43:47;;;;;;;;;;;;;;;7.16;100.00;100229.22;4996160;28;19920;-86
2022/10/08 14:46:12;;;;;;;;;;;;;;;7.12;100.00;100227.56;4995742;28;20040;-86
2022/10/08 14:48:38;;;;;;;;;;;;;;;7.05;100.00;100230.31;5013996;28;19917;-87
2022/10/08 14:51:04;;;;;;;;;;;;;;;7.11;100.00;100225.81;4997175;28;19922;-90
2022/10/08 14:53:29;;;;;;;;;;;;;;;7.16;100.00;100224.81;5003301;28;19929;-88
2022/10/08 14:55:55;;;;;;;;;;;;;;;7.20;100.00;100231.75;5011968;28;19925;-86
2022/10/08 14:58:20;;;;;;;;;;;;;;;8.26;100.00;100227.47;5010181;28;19927;-84
2022/10/08 15:00:50;;;;;;;;;;;;;;;12.45;100.00;100209.44;5013430;28;19917;-82
2022/10/08 15:03:16;;;;;;;;;;;;;;;13.21;100.00;100204.22;5014730;28;20284;-84
2022/10/08 15:05:41;;;;;;;;;;;;;;;11.90;100.00;100216.16;5009840;28;19921;-86
2022/10/08 15:08:32;;;;;;;;;;;;;;;10.94;100.00;100215.53;5004606;28;19921;-90
2022/10/08 15:11:31;;;;;;;;;;;;;;;8.52;100.00;100232.97;4908357;29;20367;-87
2022/10/08 15:14:24;;;;;;;;;;;;;;;7.54;100.00;100230.13;4887249;29;19923;-92
2022/10/08 15:19:23;;;;;;;;;;;;;;;6.85;100.00;100229.88;5001642;23;19961;-89
2022/10/08 15:21:49;;;;;;;;;;;;;;;6.59;100.00;100238.28;4992374;28;20400;-88
2022/10/08 15:24:15;;;;;;;;;;;;;;;6.49;100.00;100224.41;4972427;28;19922;-86
2022/10/08 15:26:49;;;;;;;;;;;;;;;6.42;100.00;100213.16;4971292;28;19928;-88
2022/10/08 15:29:22;;;;;;;;;;;;;;;6.45;100.00;100214.88;4966798;28;20369;-89
2022/10/08 15:31:50;;;;;;;;;;;;;;;7.08;100.00;100217.09;4989744;28;19971;-82
2022/10/08 15:36:48;;;;;;;;;;;;;;;6.86;100.00;100216.66;4969525;28;19926;-88
2022/10/08 15:39:32;;;;;;;;;;;;;;;;;;;;;
2022/10/08 15:41:58;;;;;;;;;;;;;;;7.11;100.00;100220.56;5046435;23;19948;-89
2022/10/08 15:44:36;;;;;;;;;;;;;;;7.31;100.00;100225.38;4967494;28;20369;-88
2022/10/08 15:47:04;;;;;;;;;;;;;;;7.51;100.00;100219.66;4975526;28;20452;-90
2022/10/08 15:52:43;;;;;;;;;;;;;;;7.76;100.00;100220.78;4989084;28;19918;-89
2022/10/08 15:57:54;;;;;;;;;;;;;;;7.89;100.00;100231.06;4962135;28;19921;-88
2022/10/08 16:00:25;;;;;;;;;;;;;;;7.89;100.00;100226.63;4991165;28;19929;-88
2022/10/08 16:02:53;;;;;;;;;;;;;;;7.93;100.00;100223.03;4971337;28;19922;-86
2022/10/08 16:05:20;;;;;;;;;;;;;;;7.96;100.00;100229.97;4974937;28;20400;-88
2022/10/08 16:07:45;;;;;;;;;;;;;;;8.02;100.00;100231.63;4973153;28;19953;-85
2022/10/08 16:10:20;;;;;;;;;;;;;;;8.01;100.00;100236.03;4991768;28;19965;-88
2022/10/08 16:15:59;;;;;;;;;;;;;;;8.10;100.00;100235.78;4931492;29;20006;-88
2022/10/08 16:18:33;;;;;;;;;;;;;;;8.08;100.00;100236.75;4986109;28;20309;-91
2022/10/08 16:21:05;;;;;;;;;;;;;;;8.13;100.00;100246.25;4971375;28;20005;-90
2022/10/08 16:23:31;;;;;;;;;;;;;;;8.14;100.00;100250.63;4989235;28;19922;-82
2022/10/08 16:28:30;;;;;;;;;;;;;;;6.80;100.00;100256.31;5003618;28;20365;-90
2022/10/08 16:31:04;;;;;;;;;;;;;;;6.19;100.00;100255.69;5009344;28;20000;-92
2022/10/08 16:33:56;;;;;;;;;;;;;;;5.89;100.00;100252.63;4991688;28;20417;-90
2022/10/08 16:40:05;;;;;;;;;;;;;;;5.58;100.00;100266.25;4970336;28;20004;-90
2022/10/08 16:42:54;;;;;;;;;;;;;;;5.40;100.00;100266.53;4968794;28;19926;-89
2022/10/08 16:45:19;;;;;;;;;;;;;;;5.35;100.00;100265.72;4953177;28;19922;-88
2022/10/08 16:47:52;;;;;;;;;;;;;;;5.31;100.00;100269.28;4979969;28;19928;-88
2022/10/08 16:50:57;;;;;;;;;;;;;;;5.18;100.00;100281.69;4993931;28;19921;-90
2022/10/08 16:53:21;;;;;;;;;;;;;;;5.09;100.00;100283.56;5011377;28;19929;-88
2022/10/08 16:56:07;;;;;;;;;;;;;;;5.06;100.00;100286.22;4986718;28;19922;-91
2022/10/08 16:58:33;;;;;;;;;;;;;;;5.01;100.00;100289.78;4990408;28;20586;-89
2022/10/08 17:01:02;;;;;;;;;;;;;;;4.90;100.00;100296.03;4994387;28;19926;-93
2022/10/08 17:03:27;;;;;;;;;;;;;;;4.90;100.00;100300.44;4999466;28;19925;-90
2022/10/08 17:05:53;;;;;;;;;;;;;;;4.92;100.00;100298.66;4994191;28;19987;-92
2022/10/08 17:08:47;;;;;;;;;;;;;;;4.82;100.00;100312.75;4988665;28;20430;-91
2022/10/08 17:11:13;;;;;;;;;;;;;;;4.76;100.00;100312.84;5010398;28;20322;-90
2022/10/08 17:18:42;;;;;;;;;;;;;;;;;;;;;
2022/10/08 17:21:20;;;;;;;;;;;;;;;;;;;;;
2022/10/08 17:24:18;;;;;;;;;;;;;;;4.58;100.00;100329.63;4958699;28;19932;-89
2022/10/08 17:26:43;;;;;;;;;;;;;;;4.52;100.00;100331.44;4947983;28;19926;-91
2022/10/08 17:29:11;;;;;;;;;;;;;;;4.52;100.00;100341.94;4939736;28;19956;-90
2022/10/08 17:31:47;;;;;;;;;;;;;;;4.48;100.00;100344.59;4941198;28;19961;-88
2022/10/08 17:34:15;;;;;;;;;;;;;;;4.43;100.00;100349.88;4957081;28;19923;-90
2022/10/08 17:37:14;;;;;;;;;;;;;;;4.43;100.00;100349.03;4954796;28;19977;-91
2022/10/08 17:43:22;;;;;;;;;;;;;;;4.37;100.00;100365.69;4956218;28;19973;-89
2022/10/08 17:45:43;;;;;;;;;;;;;;;4.32;100.00;100367.47;4962605;28;19968;-90
2022/10/08 17:48:18;;;;;;;;;;;;;;;4.29;100.00;100365.75;4965980;28;19918;-91
2022/10/08 17:54:21;;;;;;;;;;;;;;;4.25;100.00;100378.91;5277786;23;19937;-89
2022/10/08 17:56:53;;;;;;;;;;;;;;;4.22;100.00;100366.69;4993550;28;19921;-94
2022/10/08 17:59:20;;;;;;;;;;;;;;;4.21;100.00;100375.41;4975745;28;19928;-91
2022/10/08 18:02:10;;;;;;;;;;;;;;;4.18;100.00;100376.34;4973552;28;19941;-92
2022/10/08 18:04:36;;;;;;;;;;;;;;;4.19;100.00;100374.56;4965292;28;20444;-91
2022/10/08 18:07:46;;;;;;;;;;;;;;;4.12;100.00;100380.75;4987210;28;20048;-86
2022/10/08 18:10:22;;;;;;;;;;;;;;;;;;;;;
2022/10/08 18:13:03;;;;;;;;;;;;;;;;;;;;;
2022/10/08 18:15:38;;;;;;;;;;;;;;;4.10;100.00;100388.63;4982095;28;19929;-90
2022/10/08 18:27:49;;;;;;;;;;;;;;;4.02;100.00;100398.31;4980045;28;19926;-91